Time;durP1;ratioP1;P1;durP2;ratioP2;P2;SDS_P1;SDS_P2;PMS_P1;PMS_P2;Temp;Humidity;BMP_temperature;BMP_pressure;BME280_temperature;BME280_humidity;BME280_pressure;Samples;Min_cycle;Max_cycle;Signal;HPM_P1;HPM_P2
2021/06/12 00:09:43;;;;;;;22.30;13.17;;;14.70;99.90;;;;;;21007307;28;20050;-80
2021/06/12 00:19:44;;;;;;;20.50;12.43;;;14.50;99.90;;;;;;21006016;28;20032;-79
2021/06/12 00:29:45;;;;;;;19.17;14.03;;;14.40;99.90;;;;;;21061639;28;20062;-79
2021/06/12 00:39:46;;;;;;;17.17;12.80;;;14.40;99.90;;;;;;21008153;28;20044;-79
2021/06/12 00:49:46;;;;;;;16.47;13.03;;;14.40;99.90;;;;;;21009778;28;20666;-80
2021/06/12 00:59:47;;;;;;;14.73;11.30;;;14.40;99.90;;;;;;21016546;28;20036;-80
2021/06/12 01:09:48;;;;;;;23.20;12.20;;;14.30;99.90;;;;;;20969146;28;20099;-79
2021/06/12 01:20:04;;;;;;;18.87;11.33;;;14.30;99.90;;;;;;20966462;28;20510;-79
2021/06/12 01:30:07;;;;;;;14.52;11.13;;;14.20;99.90;;;;;;20969842;28;20104;-79
2021/06/12 01:40:10;;;;;;;15.88;10.75;;;14.10;99.90;;;;;;21045944;28;20136;-79
2021/06/12 01:50:14;;;;;;;12.88;9.80;;;14.00;99.90;;;;;;21028489;28;20037;-79
2021/06/12 02:00:15;;;;;;;13.20;10.15;;;14.10;99.90;;;;;;21044563;28;20041;-78
2021/06/12 02:10:27;;;;;;;21.42;12.43;;;13.80;99.90;;;;;;21044214;28;20045;-79
2021/06/12 02:20:29;;;;;;;19.25;11.82;;;13.50;99.90;;;;;;21045492;28;20029;-79
2021/06/12 02:30:31;;;;;;;;;;;13.60;99.90;;;;;;21018422;28;20037;-79
2021/06/12 02:40:32;;;;;;;16.55;11.35;;;13.70;99.90;;;;;;21012192;28;19912;-77
2021/06/12 02:50:36;;;;;;;16.60;11.93;;;13.50;99.90;;;;;;21044051;28;20044;-79
2021/06/12 03:00:39;;;;;;;20.40;11.93;;;13.30;99.90;;;;;;21038338;28;20048;-78
2021/06/12 03:10:41;;;;;;;18.77;13.77;;;13.40;99.90;;;;;;21029561;28;20090;-77
2021/06/12 03:20:42;;;;;;;20.95;12.77;;;13.30;99.90;;;;;;21047611;28;20115;-79
2021/06/12 03:30:43;;;;;;;16.57;12.03;;;13.20;99.90;;;;;;21048048;28;20032;-79
2021/06/12 03:40:44;;;;;;;16.57;12.23;;;13.30;99.90;;;;;;21071113;28;20052;-79
2021/06/12 03:50:47;;;;;;;15.50;12.20;;;13.20;99.90;;;;;;21013455;28;20033;-80
2021/06/12 04:00:48;;;;;;;19.42;11.60;;;13.20;99.90;;;;;;21043324;28;20048;-79
2021/06/12 04:10:49;;;;;;;14.97;11.07;;;13.20;99.90;;;;;;21037651;28;20063;-78
2021/06/12 04:20:50;;;;;;;16.70;12.03;;;13.30;99.90;;;;;;21033326;28;20037;-79
2021/06/12 04:30:51;;;;;;;14.77;11.10;;;13.50;99.90;;;;;;21017925;28;20083;-78
2021/06/12 04:40:52;;;;;;;17.83;10.87;;;13.90;99.90;;;;;;21015610;28;20045;-79
2021/06/12 04:50:53;;;;;;;16.13;12.33;;;13.90;99.90;;;;;;21042240;28;20040;-78
2021/06/12 05:00:54;;;;;;;15.70;11.17;;;14.20;99.90;;;;;;21036992;28;20056;-77
2021/06/12 05:10:55;;;;;;;17.70;10.83;;;14.70;99.90;;;;;;21047685;28;20391;-78
2021/06/12 05:20:55;;;;;;;19.30;12.27;;;15.20;99.90;;;;;;21047703;28;20036;-77
2021/06/12 05:30:57;;;;;;;19.87;12.13;;;15.60;99.90;;;;;;21045435;28;20096;-79
2021/06/12 05:40:57;;;;;;;15.60;12.07;;;16.10;99.90;;;;;;21041740;28;20503;-79
2021/06/12 05:50:58;;;;;;;18.40;12.13;;;16.30;99.90;;;;;;21003585;28;20123;-78
2021/06/12 06:00:59;;;;;;;15.67;12.73;;;16.70;99.90;;;;;;21001510;28;20402;-79
2021/06/12 06:11:04;;;;;;;14.50;10.87;;;17.30;99.90;;;;;;21023920;28;20043;-82
2021/06/12 06:21:06;;;;;;;16.98;11.90;;;17.90;99.90;;;;;;20988921;28;20055;-82
2021/06/12 06:31:07;;;;;;;15.18;11.43;;;18.10;99.90;;;;;;21031688;28;20048;-78
2021/06/12 06:41:09;;;;;;;15.43;12.20;;;18.60;99.90;;;;;;21021877;28;20053;-78
2021/06/12 06:51:10;;;;;;;;;;;18.60;99.90;;;;;;21054656;28;20036;-80
2021/06/12 07:01:11;;;;;;;12.75;9.93;;;19.00;99.90;;;;;;21009900;28;19939;-82
2021/06/12 07:11:11;;;;;;;13.17;9.90;;;19.20;99.90;;;;;;21019087;28;20040;-81
2021/06/12 07:21:12;;;;;;;12.50;10.40;;;20.10;99.90;;;;;;21000182;28;20139;-81
2021/06/12 07:31:13;;;;;;;11.83;9.73;;;20.40;99.90;;;;;;20970954;28;20123;-81
2021/06/12 07:41:14;;;;;;;13.73;9.33;;;21.40;99.90;;;;;;20972556;28;20067;-81
2021/06/12 07:51:16;;;;;;;11.43;8.57;;;21.90;99.90;;;;;;20996123;28;20104;-81
2021/06/12 08:01:16;;;;;;;11.90;8.48;;;22.10;99.90;;;;;;21005311;28;20063;-80
2021/06/12 08:11:17;;;;;;;13.20;8.63;;;22.00;99.90;;;;;;20980323;28;20380;-80
2021/06/12 08:21:19;;;;;;;11.03;8.70;;;23.00;99.90;;;;;;20978237;28;20115;-80
2021/06/12 08:31:20;;;;;;;9.57;8.47;;;22.60;99.90;;;;;;20961650;28;20036;-80
2021/06/12 08:41:21;;;;;;;10.75;7.82;;;23.20;99.90;;;;;;20979278;28;20044;-80
2021/06/12 08:51:22;;;;;;;10.13;8.50;;;23.60;99.90;;;;;;21011021;28;20052;-78
2021/06/12 09:01:23;;;;;;;12.90;9.57;;;23.60;99.90;;;;;;21030393;28;20118;-78
2021/06/12 09:11:26;;;;;;;10.30;8.63;;;23.60;99.90;;;;;;20997836;28;20130;-81
2021/06/12 09:21:38;;;;;;;14.07;8.90;;;23.50;99.90;;;;;;20990569;28;20041;-80
2021/06/12 09:31:45;;;;;;;13.07;9.00;;;23.90;99.90;;;;;;21005692;28;20040;-79
2021/06/12 09:41:52;;;;;;;10.82;8.75;;;24.70;99.90;;;;;;21008021;28;20059;-80
2021/06/12 09:52:08;;;;;;;10.18;7.85;;;25.20;99.90;;;;;;21013802;28;20060;-79
2021/06/12 10:02:10;;;;;;;10.93;7.18;;;25.80;99.90;;;;;;20974365;28;20070;-77
2021/06/12 10:12:12;;;;;;;9.15;7.15;;;25.80;99.90;;;;;;20968159;28;20135;-77
2021/06/12 10:22:15;;;;;;;7.80;6.10;;;26.10;99.90;;;;;;20979117;28;20462;-78
2021/06/12 10:32:17;;;;;;;8.27;5.82;;;26.30;99.90;;;;;;20961421;28;20037;-78
2021/06/12 10:42:23;;;;;;;11.27;6.78;;;26.50;99.90;;;;;;20978641;28;20238;-77
2021/06/12 10:52:42;;;;;;;6.45;5.22;;;26.90;99.90;;;;;;20978923;28;20047;-78
2021/06/12 11:02:54;;;;;;;9.45;5.32;;;26.90;99.90;;;;;;20976756;28;20117;-78
2021/06/12 11:12:57;;;;;;;6.03;5.43;;;27.90;99.90;;;;;;20970619;28;20037;-78
2021/06/12 11:23:01;;;;;;;9.27;5.57;;;28.20;99.90;;;;;;20943764;28;20093;-78
2021/06/12 11:33:03;;;;;;;6.78;5.40;;;28.30;99.90;;;;;;20977629;28;20044;-77
2021/06/12 11:43:06;;;;;;;5.13;4.63;;;28.00;99.90;;;;;;20954178;28;20519;-78
2021/06/12 11:53:18;;;;;;;5.60;4.50;;;28.20;99.90;;;;;;20979400;28;20040;-78
2021/06/12 12:03:19;;;;;;;7.00;4.97;;;29.30;99.90;;;;;;20909580;28;20178;-77
2021/06/12 12:13:23;;;;;;;8.38;4.47;;;28.60;99.90;;;;;;20915380;28;20045;-77
2021/06/12 12:23:25;;;;;;;5.53;4.40;;;28.50;99.90;;;;;;20949008;28;20033;-77
2021/06/12 12:33:26;;;;;;;8.23;4.50;;;29.10;99.90;;;;;;20887955;28;20046;-77
2021/06/12 12:43:27;;;;;;;8.38;4.75;;;28.80;99.90;;;;;;20888535;28;20587;-77
2021/06/12 12:53:38;;;;;;;5.18;4.13;;;29.60;99.90;;;;;;20885167;28;20047;-77
2021/06/12 13:03:47;;;;;;;5.05;4.35;;;28.90;99.90;;;;;;20885712;28;20040;-76
2021/06/12 13:13:48;;;;;;;6.18;4.22;;;28.40;99.90;;;;;;20869301;28;20041;-77
2021/06/12 13:23:59;;;;;;;7.50;4.00;;;28.30;99.90;;;;;;20901932;28;20037;-77
2021/06/12 13:34:02;;;;;;;6.30;3.03;;;29.00;99.90;;;;;;20883922;28;20497;-77
2021/06/12 13:44:08;;;;;;;4.30;2.58;;;29.30;99.90;;;;;;20897849;28;20072;-78
2021/06/12 13:54:09;;;;;;;2.25;2.05;;;29.30;99.90;;;;;;20902544;28;20123;-77
2021/06/12 14:04:10;;;;;;;2.88;2.28;;;29.40;99.90;;;;;;20933270;28;20052;-77
2021/06/12 14:14:10;;;;;;;2.42;1.70;;;28.70;99.90;;;;;;20937433;28;20167;-77
2021/06/12 14:24:15;;;;;;;3.20;1.85;;;28.80;99.90;;;;;;20876689;28;20075;-77
2021/06/12 14:34:16;;;;;;;2.63;1.58;;;27.70;99.90;;;;;;20959740;28;20134;-77
2021/06/12 14:44:18;;;;;;;3.65;1.92;;;27.20;99.90;;;;;;20941476;28;20165;-77
2021/06/12 14:54:19;;;;;;;2.30;1.38;;;28.10;99.90;;;;;;20978243;28;20040;-77
2021/06/12 15:04:19;;;;;;;4.45;1.30;;;27.60;99.90;;;;;;20938168;28;20044;-77
2021/06/12 15:14:20;;;;;;;2.53;1.08;;;27.00;99.90;;;;;;20970448;28;20048;-77
2021/06/12 15:24:21;;;;;;;0.90;0.80;;;27.30;99.90;;;;;;20907572;28;20056;-77
2021/06/12 15:34:22;;;;;;;1.95;1.20;;;26.90;99.90;;;;;;20883528;28;20049;-77
2021/06/12 15:44:23;;;;;;;2.25;0.80;;;26.50;99.90;;;;;;20897741;28;20045;-75
2021/06/12 15:54:24;;;;;;;;;;;26.70;99.90;;;;;;20897519;28;20517;-77
2021/06/12 16:04:26;;;;;;;1.20;0.70;;;26.20;99.90;;;;;;20936400;28;19917;-77
2021/06/12 16:14:27;;;;;;;1.02;0.52;;;26.20;99.90;;;;;;20918894;28;20609;-77
2021/06/12 16:24:28;;;;;;;;;;;25.80;99.90;;;;;;20948424;28;20041;-77
2021/06/12 16:34:29;;;;;;;1.10;0.52;;;25.70;99.90;;;;;;20950817;28;19909;-77
2021/06/12 16:44:29;;;;;;;;;;;25.80;99.90;;;;;;20987438;28;20036;-76
2021/06/12 17:04:34;;;;;;;1.02;0.70;;;25.80;99.90;;;;;;20972536;28;20040;-77
2021/06/12 17:14:34;;;;;;;3.42;0.80;;;25.40;99.90;;;;;;20925750;28;20451;-77
2021/06/12 17:24:36;;;;;;;1.10;1.00;;;25.40;99.90;;;;;;20925501;28;20037;-77
2021/06/12 17:34:36;;;;;;;;;;;25.40;99.90;;;;;;20929542;28;20279;-78
2021/06/12 17:44:38;;;;;;;1.53;1.03;;;26.10;99.90;;;;;;20924697;28;19912;-77
2021/06/12 17:54:39;;;;;;;3.58;1.17;;;26.00;99.90;;;;;;20923544;28;20087;-77
2021/06/12 18:04:39;;;;;;;;;;;26.50;99.90;;;;;;20957342;28;20131;-77
2021/06/12 18:14:41;;;;;;;0.83;0.70;;;28.00;99.90;;;;;;21004490;28;19955;-77
2021/06/12 18:24:42;;;;;;;1.27;0.90;;;28.90;99.90;;;;;;21011298;28;20036;-77
2021/06/12 18:34:43;;;;;;;0.93;0.65;;;29.60;99.90;;;;;;21015516;28;20045;-78
2021/06/12 18:44:44;;;;;;;1.17;0.80;;;29.60;99.90;;;;;;21012186;28;20576;-77
2021/06/12 18:54:44;;;;;;;;;;;25.30;99.90;;;;;;21005042;28;20095;-77
2021/06/12 19:04:45;;;;;;;2.90;1.00;;;23.70;99.90;;;;;;20947550;28;19913;-77
2021/06/12 19:14:46;;;;;;;1.27;1.10;;;22.50;99.90;;;;;;20919550;28;20033;-77
2021/06/12 19:24:48;;;;;;;2.17;1.17;;;22.00;99.90;;;;;;20901788;28;20044;-77
2021/06/12 19:34:53;;;;;;;1.65;0.77;;;21.40;99.90;;;;;;20885041;28;20044;-77
2021/06/12 19:44:54;;;;;;;1.50;1.10;;;21.30;99.90;;;;;;20916998;28;20041;-77
2021/06/12 19:54:55;;;;;;;2.40;1.03;;;20.70;99.90;;;;;;20915163;28;20060;-76
2021/06/12 20:04:56;;;;;;;5.30;1.00;;;20.20;99.90;;;;;;20949605;28;20517;-78
2021/06/12 20:14:57;;;;;;;2.20;1.13;;;19.80;99.90;;;;;;21003225;28;20033;-78
2021/06/12 20:24:58;;;;;;;1.90;0.90;;;19.60;99.90;;;;;;21004151;28;20130;-77
2021/06/12 20:35:01;;;;;;;5.57;1.00;;;19.50;99.90;;;;;;21000924;28;20045;-77
2021/06/12 20:45:02;;;;;;;2.20;1.00;;;19.10;99.90;;;;;;20996521;28;20043;-77
2021/06/12 20:55:06;;;;;;;2.88;1.10;;;18.80;99.90;;;;;;20995120;28;20040;-77
2021/06/12 21:05:13;;;;;;;3.40;1.27;;;18.50;99.90;;;;;;20955485;28;20119;-77
2021/06/12 21:15:14;;;;;;;4.60;1.10;;;18.20;99.90;;;;;;20910514;28;20047;-78
2021/06/12 21:25:15;;;;;;;3.42;1.45;;;17.90;99.90;;;;;;20908513;28;20095;-78
2021/06/12 21:35:16;;;;;;;5.10;1.70;;;17.80;99.90;;;;;;20940495;28;20029;-77
2021/06/12 21:45:18;;;;;;;5.00;1.70;;;17.80;99.90;;;;;;20942678;28;20040;-76
2021/06/12 21:55:19;;;;;;;;;;;18.00;99.90;;;;;;20931063;28;20061;-77
2021/06/12 22:05:20;;;;;;;2.83;1.60;;;18.10;99.90;;;;;;20951415;28;20350;-77
2021/06/12 22:15:21;;;;;;;3.00;1.53;;;17.90;99.90;;;;;;20917413;28;20272;-77
2021/06/12 22:25:22;;;;;;;6.53;1.97;;;17.80;99.90;;;;;;20916650;28;20132;-77
2021/06/12 22:35:23;;;;;;;2.40;1.83;;;17.60;99.90;;;;;;20915923;28;20411;-77
2021/06/12 22:45:24;;;;;;;4.30;1.70;;;17.20;99.90;;;;;;20897372;28;20042;-76
2021/06/12 22:55:25;;;;;;;4.70;2.30;;;16.90;99.90;;;;;;20915069;28;20555;-76
2021/06/12 23:05:26;;;;;;;3.40;2.20;;;16.90;99.90;;;;;;20936965;28;20047;-77
2021/06/12 23:15:27;;;;;;;8.80;2.60;;;16.80;99.90;;;;;;20995552;28;20032;-77
2021/06/12 23:25:28;;;;;;;7.50;3.57;;;16.90;99.90;;;;;;20994544;28;20033;-77
2021/06/12 23:35:29;;;;;;;7.80;3.73;;;16.70;99.90;;;;;;21005049;28;20033;-77
2021/06/12 23:45:30;;;;;;;8.97;3.57;;;16.50;99.90;;;;;;20993856;28;20045;-76
2021/06/12 23:55:31;;;;;;;12.53;4.00;;;16.60;99.90;;;;;;20995036;28;20086;-77
